createdAt,value
2023-05-16T00:01:27.966Z,101816.72
2023-05-16T00:03:55.875Z,101825.66
2023-05-16T00:06:24.142Z,101831.25
2023-05-16T00:08:51.939Z,101828.78
2023-05-16T00:11:22.246Z,101829.00
2023-05-16T00:13:51.674Z,101827.97
2023-05-16T00:16:22.112Z,101840.44
2023-05-16T00:18:50.211Z,101831.31
2023-05-16T00:21:18.349Z,101835.06
2023-05-16T00:23:46.551Z,101828.00
2023-05-16T00:26:14.456Z,101830.72
2023-05-16T00:28:44.330Z,101839.00
2023-05-16T00:31:12.409Z,101829.47
2023-05-16T00:33:40.476Z,101829.88
2023-05-16T00:36:08.915Z,101834.25
2023-05-16T00:38:36.724Z,101827.19
2023-05-16T00:41:04.608Z,101823.66
2023-05-16T00:43:32.507Z,101835.28
2023-05-16T00:46:02.708Z,101838.19
2023-05-16T00:48:30.604Z,101833.00
2023-05-16T00:50:58.699Z,101835.91
2023-05-16T00:53:26.972Z,101833.66
2023-05-16T00:55:55.208Z,101834.69
2023-05-16T00:58:24.006Z,101832.22
2023-05-16T01:00:51.927Z,101844.03
2023-05-16T01:03:22.217Z,101845.09
2023-05-16T01:05:51.284Z,101845.09
2023-05-16T01:08:19.453Z,101835.34
2023-05-16T01:10:54.767Z,101836.16
2023-05-16T01:13:29.048Z,101849.66
2023-05-16T01:16:05.996Z,101851.53
2023-05-16T01:18:44.516Z,101848.00
2023-05-16T01:21:17.637Z,101844.69
2023-05-16T01:23:54.228Z,101855.69
2023-05-16T01:26:27.254Z,101849.25
2023-05-16T01:28:56.091Z,101846.56
2023-05-16T01:31:24.731Z,101842.19
2023-05-16T01:33:52.838Z,101853.00
2023-05-16T01:36:26.728Z,101847.59
2023-05-16T01:39:03.621Z,101848.84
2023-05-16T01:41:42.301Z,101853.63
2023-05-16T01:44:19.989Z,101855.91
2023-05-16T01:46:49.414Z,101850.75
2023-05-16T01:49:21.366Z,101853.84
2023-05-16T01:51:52.796Z,101858.03
2023-05-16T01:54:23.373Z,101856.38
2023-05-16T01:56:54.570Z,101861.13
2023-05-16T01:59:24.236Z,101865.09
2023-05-16T02:01:55.225Z,101872.34
2023-05-16T02:04:24.400Z,101869.88
2023-05-16T02:06:52.876Z,101863.66
2023-05-16T02:09:20.833Z,101874.03
2023-05-16T02:11:48.956Z,101875.06
2023-05-16T02:14:18.325Z,101868.00
2023-05-16T02:16:46.393Z,101876.31
2023-05-16T02:19:14.457Z,101873.00
2023-05-16T02:21:42.287Z,101873.19
2023-05-16T02:24:10.090Z,101875.06
2023-05-16T02:26:38.190Z,101871.53
2023-05-16T02:29:06.765Z,101867.41
2023-05-16T02:31:36.283Z,101873.00
2023-05-16T02:34:04.336Z,101877.78
2023-05-16T02:36:32.162Z,101886.06
2023-05-16T02:39:00.020Z,101875.50
2023-05-16T02:41:27.947Z,101885.66
2023-05-16T02:43:55.936Z,101892.09
2023-05-16T02:46:28.673Z,101894.78
2023-05-16T02:48:58.591Z,101893.34
2023-05-16T02:51:27.974Z,101900.59
2023-05-16T02:53:57.042Z,101900.81
2023-05-16T02:56:25.037Z,101907.22
2023-05-16T02:58:54.754Z,101914.69
2023-05-16T03:01:22.741Z,101909.31
2023-05-16T03:03:51.371Z,101913.03
2023-05-16T03:06:20.889Z,101920.50
2023-05-16T03:08:48.910Z,101920.50
2023-05-16T03:11:19.136Z,101926.72
2023-05-16T03:13:46.917Z,101935.84
2023-05-16T03:16:15.759Z,101927.13
2023-05-16T03:18:43.866Z,101931.91
2023-05-16T03:21:11.750Z,101923.19
2023-05-16T03:23:40.904Z,101931.28
2023-05-16T03:26:08.765Z,101933.34
2023-05-16T03:28:36.662Z,101933.56
2023-05-16T03:31:04.520Z,101933.75
2023-05-16T03:33:32.434Z,101934.81
2023-05-16T03:36:00.468Z,101937.69
2023-05-16T03:38:28.612Z,101938.94
2023-05-16T03:40:57.806Z,101944.53
2023-05-16T03:43:25.807Z,101948.06
2023-05-16T03:45:53.844Z,101947.22
2023-05-16T03:48:21.760Z,101946.41
2023-05-16T03:50:49.546Z,101954.72
2023-05-16T03:53:17.446Z,101956.59
2023-05-16T03:55:48.107Z,101948.72
2023-05-16T03:58:18.047Z,101948.09
2023-05-16T04:00:46.859Z,101955.34
2023-05-16T04:03:14.878Z,101952.03
2023-05-16T04:05:42.746Z,101941.84
2023-05-16T04:08:10.814Z,101957.59
2023-05-16T04:10:38.795Z,101960.50
2023-05-16T04:13:06.552Z,101963.41
2023-05-16T04:15:35.754Z,101962.56
2023-05-16T04:18:04.308Z,101962.97
2023-05-16T04:20:33.044Z,101964.84
2023-05-16T04:23:01.036Z,101971.06
2023-05-16T04:25:29.145Z,101970.25
2023-05-16T04:27:57.322Z,101975.81
2023-05-16T04:30:25.331Z,101972.31
2023-05-16T04:32:54.551Z,101978.09
2023-05-16T04:35:23.318Z,101982.84
2023-05-16T04:37:51.213Z,101987.41
2023-05-16T04:40:19.102Z,101999.22
2023-05-16T04:42:46.920Z,101991.34
2023-05-16T04:45:14.691Z,101996.09
2023-05-16T04:47:42.670Z,101994.66
2023-05-16T04:50:12.385Z,102008.31
2023-05-16T04:52:40.249Z,102000.44
2023-05-16T04:55:09.302Z,102010.38
2023-05-16T04:57:37.309Z,102012.25
2023-05-16T05:00:08.263Z,102007.06
2023-05-16T05:02:36.251Z,102006.19
2023-05-16T05:05:04.361Z,102010.56
2023-05-16T05:07:34.543Z,102010.56
2023-05-16T05:10:02.380Z,102017.63
2023-05-16T05:12:30.143Z,102015.75
2023-05-16T05:14:58.513Z,102015.75
2023-05-16T05:17:26.525Z,102020.94
2023-05-16T05:19:54.355Z,102015.34
2023-05-16T05:22:22.191Z,102018.69
2023-05-16T05:24:51.859Z,102016.00
2023-05-16T05:27:19.801Z,102019.13
2023-05-16T05:29:47.651Z,102012.47
2023-05-16T05:32:15.496Z,102025.56
2023-05-16T05:34:43.501Z,102036.56
2023-05-16T05:37:11.550Z,102022.06
2023-05-16T05:39:39.454Z,102039.47
2023-05-16T05:42:09.122Z,102035.75
2023-05-16T05:44:37.890Z,102032.84
2023-05-16T05:47:06.734Z,102029.94
2023-05-16T05:49:35.893Z,102012.09
2023-05-16T05:52:03.975Z,102030.78
2023-05-16T05:54:32.043Z,102027.47
2023-05-16T05:57:00.102Z,102037.84
2023-05-16T05:59:29.325Z,102047.78
2023-05-16T06:01:58.030Z,102049.66
2023-05-16T06:04:25.901Z,102038.03
2023-05-16T06:06:53.759Z,102055.25
2023-05-16T06:09:22.625Z,102047.16
2023-05-16T06:11:51.159Z,102041.94
2023-05-16T06:14:19.059Z,102053.81
2023-05-16T06:16:48.348Z,102057.13
2023-05-16T06:19:16.557Z,102062.28
2023-05-16T06:21:44.838Z,102068.31
2023-05-16T06:24:12.774Z,102067.91
2023-05-16T06:26:40.593Z,102076.22
2023-05-16T06:29:08.908Z,102052.34
2023-05-16T06:31:36.797Z,102061.72
2023-05-16T06:34:06.127Z,102061.09
2023-05-16T06:36:34.067Z,102072.31
2023-05-16T06:39:01.868Z,102058.81
2023-05-16T06:41:29.935Z,102067.53
2023-05-16T06:43:57.886Z,102058.41
2023-05-16T06:46:26.323Z,102076.88
2023-05-16T06:48:54.263Z,102062.56
2023-05-16T06:51:23.785Z,102075.44
2023-05-16T06:53:51.676Z,102076.91
2023-05-16T06:56:19.514Z,102072.34
2023-05-16T06:58:47.928Z,102071.72
2023-05-16T07:01:15.805Z,102064.44
2023-05-16T07:03:44.331Z,102072.53
2023-05-16T07:06:12.340Z,102074.19
2023-05-16T07:08:41.883Z,102075.03
2023-05-16T07:11:11.547Z,102077.72
2023-05-16T07:13:39.536Z,102080.84
2023-05-16T07:16:08.591Z,102055.72
2023-05-16T07:18:36.786Z,102083.13
2023-05-16T07:21:04.824Z,102069.22
2023-05-16T07:23:34.743Z,102074.63
2023-05-16T07:26:04.290Z,102076.91
2023-05-16T07:28:32.219Z,102077.31
2023-05-16T07:31:00.607Z,102081.03
2023-05-16T07:33:28.565Z,102078.53
2023-05-16T07:36:07.890Z,102085.81
2023-05-16T07:38:36.315Z,102094.94
2023-05-16T07:41:06.298Z,102082.28
2023-05-16T07:43:35.337Z,102082.47
2023-05-16T07:46:03.548Z,102080.63
2023-05-16T07:48:31.739Z,102081.66
2023-05-16T07:50:59.633Z,102087.25
2023-05-16T07:53:27.427Z,102086.22
2023-05-16T07:55:55.349Z,102088.91
2023-05-16T07:58:24.622Z,102094.09
2023-05-16T08:00:52.536Z,102091.19
2023-05-16T08:03:20.826Z,102095.16
2023-05-16T08:05:49.077Z,102094.34
2023-05-16T08:08:16.998Z,102093.09
2023-05-16T08:10:45.167Z,102090.03
2023-05-16T08:13:13.132Z,102092.53
2023-05-16T08:15:42.944Z,102093.34
2023-05-16T08:18:14.815Z,102101.03
2023-05-16T08:20:43.034Z,102086.09
2023-05-16T08:23:10.889Z,102094.41
2023-05-16T08:25:38.934Z,102105.84
2023-05-16T08:28:06.861Z,102102.91
2023-05-16T08:30:34.968Z,102103.09
2023-05-16T08:33:05.537Z,102094.38
2023-05-16T08:35:35.361Z,102097.69
2023-05-16T08:38:04.071Z,102097.28
2023-05-16T08:40:32.184Z,102098.72
2023-05-16T08:43:00.250Z,102079.00
2023-05-16T08:45:28.628Z,102072.16
2023-05-16T08:47:57.437Z,102086.91
2023-05-16T08:50:27.688Z,102085.03
2023-05-16T08:52:55.690Z,102090.03
2023-05-16T08:55:24.338Z,102104.34
2023-05-16T08:57:52.656Z,102094.38
2023-05-16T09:00:21.740Z,102090.66
2023-05-16T09:02:50.133Z,102086.91
2023-05-16T09:05:18.929Z,102095.63
2023-05-16T09:07:48.148Z,102083.78
2023-05-16T09:10:16.435Z,102096.03
2023-05-16T09:12:46.763Z,102084.22
2023-05-16T09:15:14.664Z,102084.00
2023-05-16T09:17:45.482Z,102092.72
2023-05-16T09:20:15.194Z,102090.03
2023-05-16T09:22:53.875Z,102097.28
2023-05-16T09:25:30.212Z,102087.31
2023-05-16T09:28:00.312Z,102082.75
2023-05-16T09:30:30.787Z,102087.13
2023-05-16T09:33:01.349Z,102077.97
2023-05-16T09:38:01.377Z,102081.72
2023-05-16T09:40:29.564Z,102083.38
2023-05-16T09:43:06.005Z,102083.59
2023-05-16T09:45:34.667Z,102072.78
2023-05-16T09:48:05.521Z,102071.75
2023-05-16T09:50:35.283Z,102073.19
2023-05-16T09:53:05.674Z,102067.19
2023-05-16T09:55:33.892Z,102074.88
2023-05-16T09:58:01.819Z,102069.88
2023-05-16T10:00:31.279Z,102074.88
2023-05-16T10:03:02.162Z,102075.91
2023-05-16T10:05:32.741Z,102084.00
2023-05-16T10:08:01.326Z,102075.69
2023-05-16T10:10:31.619Z,102081.94
2023-05-16T10:13:02.464Z,102088.16
2023-05-16T10:15:30.862Z,102090.22
2023-05-16T10:18:02.174Z,102081.09
2023-05-16T10:20:30.705Z,102096.91
2023-05-16T10:23:00.076Z,102088.59
2023-05-16T10:25:33.480Z,102077.81
2023-05-16T10:28:01.809Z,102084.25
2023-05-16T10:30:29.824Z,102076.13
2023-05-16T10:32:59.016Z,102085.91
2023-05-16T10:35:27.344Z,102076.34
2023-05-16T10:37:56.224Z,102076.97
2023-05-16T10:40:25.018Z,102071.97
2023-05-16T10:42:58.303Z,102075.50
2023-05-16T10:45:26.598Z,102070.50
2023-05-16T10:47:56.294Z,102072.78
2023-05-16T10:50:39.220Z,102053.69
2023-05-16T10:53:14.963Z,102075.28
2023-05-16T10:55:46.655Z,102071.53
2023-05-16T10:58:20.442Z,102068.63
2023-05-16T11:00:49.484Z,102080.88
2023-05-16T11:03:26.130Z,102065.91
2023-05-16T11:05:54.317Z,102063.63
2023-05-16T11:08:22.294Z,102061.34
2023-05-16T11:10:50.217Z,102075.03
2023-05-16T11:13:25.977Z,102077.28
2023-05-16T11:16:28.779Z,102066.09
2023-05-16T11:19:05.616Z,102064.81
2023-05-16T11:22:17.158Z,102079.75
2023-05-16T11:24:56.901Z,102073.75
2023-05-16T11:27:27.887Z,102080.19
2023-05-16T11:30:03.240Z,102087.88
2023-05-16T11:32:33.094Z,102084.97
2023-05-16T11:35:01.482Z,102084.13
2023-05-16T11:37:29.678Z,102087.44
2023-05-16T11:40:00.588Z,102087.22
2023-05-16T11:42:31.504Z,102077.03
2023-05-16T11:45:07.794Z,102073.09
2023-05-16T11:47:38.149Z,102076.63
2023-05-16T11:50:07.989Z,102088.00
2023-05-16T11:52:35.927Z,102055.88
2023-05-16T11:55:06.402Z,102083.00
2023-05-16T11:57:34.232Z,102077.59
2023-05-16T12:00:08.108Z,102075.72
2023-05-16T12:02:37.624Z,102088.41
2023-05-16T12:05:10.050Z,102084.88
2023-05-16T12:07:38.598Z,102086.97
2023-05-16T12:10:07.736Z,102089.66
2023-05-16T12:12:35.857Z,102087.19
2023-05-16T12:15:04.257Z,102088.84
2023-05-16T12:17:32.494Z,102081.97
2023-05-16T12:20:02.258Z,102083.44
2023-05-16T12:22:30.223Z,102096.72
2023-05-16T12:25:00.413Z,102078.00
2023-05-16T12:27:28.408Z,102091.06
2023-05-16T12:29:59.814Z,102096.88
2023-05-16T12:32:27.821Z,102091.50
2023-05-16T12:34:56.324Z,102104.38
2023-05-16T12:37:25.922Z,102097.50
2023-05-16T12:40:01.155Z,102106.25
2023-05-16T12:42:28.986Z,102093.56
2023-05-16T12:44:57.150Z,102095.81
2023-05-16T12:47:24.998Z,102104.59
2023-05-16T12:49:54.381Z,102106.22
2023-05-16T12:52:23.258Z,102119.53
2023-05-16T12:54:52.608Z,102110.78
2023-05-16T12:57:21.313Z,102115.59
2023-05-16T12:59:50.944Z,102112.69
2023-05-16T13:02:19.442Z,102111.84
2023-05-16T13:04:47.562Z,102122.25
2023-05-16T13:07:15.526Z,102118.72
2023-05-16T13:09:43.460Z,102116.00
2023-05-16T13:12:14.286Z,102107.91
2023-05-16T13:14:43.718Z,102116.84
2023-05-16T13:17:12.703Z,102114.34
2023-05-16T13:19:40.913Z,102107.69
2023-05-16T13:22:08.748Z,102111.84
2023-05-16T13:24:36.560Z,102118.91
2023-05-16T13:27:04.517Z,102113.72
2023-05-16T13:29:33.760Z,102120.16
2023-05-16T13:32:01.615Z,102115.59
2023-05-16T13:34:29.519Z,102124.09
2023-05-16T13:36:57.519Z,102126.38
2023-05-16T13:39:26.301Z,102123.25
2023-05-16T13:41:54.295Z,102119.69
2023-05-16T13:44:22.644Z,102126.78
2023-05-16T13:46:52.007Z,102125.09
2023-05-16T13:49:19.876Z,102129.91
2023-05-16T13:51:48.265Z,102124.09
2023-05-16T13:54:16.420Z,102123.25
2023-05-16T13:56:46.409Z,102141.97
2023-05-16T13:59:18.530Z,102134.47
2023-05-16T14:01:56.622Z,102140.09
2023-05-16T14:04:24.448Z,102138.66
2023-05-16T14:06:52.361Z,102138.44
2023-05-16T14:09:20.155Z,102132.81
2023-05-16T14:11:47.990Z,102136.13
2023-05-16T14:14:15.838Z,102134.88
2023-05-16T14:16:46.026Z,102137.38
2023-05-16T14:19:18.109Z,102140.69
2023-05-16T14:21:47.161Z,102141.31
2023-05-16T14:24:14.980Z,102124.28
2023-05-16T14:26:42.837Z,102137.13
2023-05-16T14:29:10.805Z,102134.22
2023-05-16T14:31:38.686Z,102130.47
2023-05-16T14:34:06.938Z,102141.91
2023-05-16T14:36:36.459Z,102141.91
2023-05-16T14:39:04.477Z,102141.06
2023-05-16T14:41:32.305Z,102135.66
2023-05-16T14:44:00.161Z,102134.41
2023-05-16T14:46:28.077Z,102137.94
2023-05-16T14:48:55.974Z,102119.25
2023-05-16T14:51:24.057Z,102140.03
2023-05-16T14:53:53.330Z,102146.25
2023-05-16T14:56:21.244Z,102141.69
2023-05-16T14:58:49.056Z,102147.50
2023-05-16T15:01:17.578Z,102149.59
2023-05-16T15:03:54.430Z,102152.75
2023-05-16T15:06:24.355Z,102147.34
2023-05-16T15:08:53.723Z,102143.19
2023-05-16T15:11:21.862Z,102141.53
2023-05-16T15:13:49.799Z,102135.94
2023-05-16T15:16:17.744Z,102151.09
2023-05-16T15:18:46.078Z,102151.69
2023-05-16T15:21:13.905Z,102146.91
2023-05-16T15:23:42.595Z,102143.16
2023-05-16T15:26:11.832Z,102147.72
2023-05-16T15:28:39.909Z,102147.50
2023-05-16T15:31:07.700Z,102148.13
2023-05-16T15:33:35.605Z,102144.59
2023-05-16T15:36:03.449Z,102146.66
2023-05-16T15:38:31.292Z,102155.81
2023-05-16T15:41:14.024Z,102131.94
2023-05-16T15:43:47.752Z,102141.47
2023-05-16T15:46:15.948Z,102143.13
2023-05-16T15:48:44.887Z,102145.00
2023-05-16T15:51:13.913Z,102142.50
2023-05-16T15:53:41.974Z,102148.97
2023-05-16T15:56:10.492Z,102152.50
2023-05-16T15:58:38.517Z,102151.66
2023-05-16T16:01:07.809Z,102147.31
2023-05-16T16:03:35.825Z,102159.78
2023-05-16T16:06:04.017Z,102155.41
2023-05-16T16:08:31.876Z,102146.47
2023-05-16T16:10:59.667Z,102151.88
2023-05-16T16:13:27.648Z,102153.75
2023-05-16T16:15:55.767Z,102152.09
2023-05-16T16:18:25.046Z,102152.09
2023-05-16T16:20:53.077Z,102154.81
2023-05-16T16:23:21.851Z,102154.19
2023-05-16T16:25:50.296Z,102153.56
2023-05-16T16:28:19.125Z,102154.22
2023-05-16T16:30:50.387Z,102152.75
2023-05-16T16:33:18.465Z,102165.22
2023-05-16T16:35:48.205Z,102154.63
2023-05-16T16:38:16.376Z,102167.31
2023-05-16T16:40:44.325Z,102166.25
2023-05-16T16:43:12.184Z,102168.13
2023-05-16T16:45:40.030Z,102176.25
2023-05-16T16:48:09.110Z,102174.38
2023-05-16T16:50:37.079Z,102174.16
2023-05-16T16:53:06.396Z,102166.03
2023-05-16T16:55:34.402Z,102172.91
2023-05-16T16:58:02.943Z,102165.84
2023-05-16T17:00:31.472Z,102153.38
2023-05-16T17:02:59.472Z,102175.81
2023-05-16T17:05:27.538Z,102165.22
2023-05-16T17:07:55.510Z,102176.88
2023-05-16T17:10:24.766Z,102176.44
2023-05-16T17:12:52.606Z,102180.81
2023-05-16T17:15:20.503Z,102181.41
2023-05-16T17:17:49.298Z,102178.72
2023-05-16T17:20:17.455Z,102192.22
2023-05-16T17:22:46.188Z,102191.00
2023-05-16T17:25:14.026Z,102195.78
2023-05-16T17:27:44.252Z,102195.78
2023-05-16T17:30:12.786Z,102203.06
2023-05-16T17:32:40.759Z,102208.69
2023-05-16T17:35:12.291Z,102202.03
2023-05-16T17:37:41.507Z,102211.59
2023-05-16T17:40:16.299Z,102217.00
2023-05-16T17:42:45.891Z,102213.47
2023-05-16T17:45:14.907Z,102211.81
2023-05-16T17:47:43.289Z,102217.22
2023-05-16T17:50:12.132Z,102217.00
2023-05-16T17:52:40.529Z,102214.50
2023-05-16T17:55:10.563Z,102217.22
2023-05-16T17:57:38.773Z,102214.94
2023-05-16T18:00:09.764Z,102212.03
2023-05-16T18:02:38.727Z,102219.91
2023-05-16T18:05:07.837Z,102209.34
2023-05-16T18:07:35.807Z,102222.00
2023-05-16T18:10:03.686Z,102220.13
2023-05-16T18:12:31.611Z,102223.88
2023-05-16T18:14:59.442Z,102217.63
2023-05-16T18:17:28.755Z,102225.97
2023-05-16T18:19:56.848Z,102218.06
2023-05-16T18:22:24.738Z,102235.94
2023-05-16T18:24:52.734Z,102229.72
2023-05-16T18:27:20.650Z,102223.47
2023-05-16T18:29:48.480Z,102230.34
2023-05-16T18:32:16.484Z,102230.13
2023-05-16T18:34:45.752Z,102235.53
2023-05-16T18:37:13.873Z,102235.53
2023-05-16T18:39:43.645Z,102234.69
2023-05-16T18:42:11.528Z,102237.41
2023-05-16T18:44:39.528Z,102228.47
2023-05-16T18:47:08.061Z,102235.75
2023-05-16T18:49:39.264Z,102232.00
2023-05-16T18:52:09.236Z,102214.38
2023-05-16T18:54:37.956Z,102232.00
2023-05-16T18:57:07.190Z,102229.72
2023-05-16T18:59:36.024Z,102221.84
2023-05-16T19:02:04.460Z,102243.25
2023-05-16T19:04:32.370Z,102243.69
2023-05-16T19:07:02.282Z,102249.28
2023-05-16T19:09:33.233Z,102231.63
2023-05-16T19:12:01.003Z,102245.34
2023-05-16T19:14:28.809Z,102258.44
2023-05-16T19:16:56.774Z,102260.53
2023-05-16T19:19:25.079Z,102261.34
2023-05-16T19:21:53.163Z,102269.69
2023-05-16T19:24:21.026Z,102269.06
2023-05-16T19:26:50.346Z,102274.69
2023-05-16T19:29:19.139Z,102277.59
2023-05-16T19:31:47.023Z,102280.50
2023-05-16T19:34:15.044Z,102283.41
2023-05-16T19:36:42.949Z,102287.16
2023-05-16T19:39:10.916Z,102284.88
2023-05-16T19:41:38.793Z,102291.53
2023-05-16T19:44:08.157Z,102294.44
2023-05-16T19:46:36.077Z,102294.66
2023-05-16T19:49:04.234Z,102296.53
2023-05-16T19:51:41.333Z,102292.38
2023-05-16T19:54:10.180Z,102297.16
2023-05-16T19:56:38.041Z,102295.50
2023-05-16T19:59:07.237Z,102303.81
2023-05-16T20:01:35.075Z,102302.16
2023-05-16T20:04:04.876Z,102299.88
2023-05-16T20:06:33.380Z,102303.63
2023-05-16T20:09:01.323Z,102303.81
2023-05-16T20:11:29.409Z,102304.66
2023-05-16T20:13:59.492Z,102312.56
2023-05-16T20:16:28.685Z,102307.34
2023-05-16T20:18:56.555Z,102315.47
2023-05-16T20:21:24.566Z,102318.38
2023-05-16T20:23:52.448Z,102326.69
2023-05-16T20:26:21.452Z,102324.19
2023-05-16T20:28:49.340Z,102323.78
2023-05-16T20:31:17.305Z,102324.59
2023-05-16T20:33:46.927Z,102337.28
2023-05-16T20:36:14.904Z,102337.50
2023-05-16T20:38:42.767Z,102343.72
2023-05-16T20:41:10.973Z,102339.56
2023-05-16T20:43:38.992Z,102348.72
2023-05-16T20:46:06.928Z,102342.88
2023-05-16T20:48:34.796Z,102337.69
2023-05-16T20:51:04.074Z,102339.56
2023-05-16T20:53:31.979Z,102347.88
2023-05-16T20:55:59.822Z,102349.72
2023-05-16T20:58:27.828Z,102344.53
2023-05-16T21:00:55.807Z,102358.25
2023-05-16T21:03:23.726Z,102348.47
2023-05-16T21:05:51.730Z,102349.72
2023-05-16T21:08:21.016Z,102361.34
2023-05-16T21:10:48.825Z,102350.75
2023-05-16T21:13:16.600Z,102355.13
2023-05-16T21:15:44.401Z,102362.59
2023-05-16T21:18:12.320Z,102355.53
2023-05-16T21:20:40.220Z,102360.94
2023-05-16T21:23:08.013Z,102358.44
2023-05-16T21:25:37.633Z,102358.44
2023-05-16T21:28:06.052Z,102355.72
2023-05-16T21:30:33.890Z,102357.59
2023-05-16T21:33:02.179Z,102357.81
2023-05-16T21:35:30.447Z,102366.75
2023-05-16T21:37:58.459Z,102372.16
2023-05-16T21:40:26.441Z,102371.31
2023-05-16T21:42:55.972Z,102365.06
2023-05-16T21:45:24.027Z,102375.88
2023-05-16T21:47:51.898Z,102382.31
2023-05-16T21:50:19.970Z,102373.19
2023-05-16T21:52:47.929Z,102369.19
2023-05-16T21:55:15.913Z,102374.81
2023-05-16T21:57:43.894Z,102388.13
2023-05-16T22:00:14.763Z,102387.50
2023-05-16T22:02:42.818Z,102383.34
2023-05-16T22:05:11.218Z,102389.56
2023-05-16T22:07:39.166Z,102388.72
2023-05-16T22:10:08.305Z,102382.03
2023-05-16T22:12:36.166Z,102399.09
2023-05-16T22:15:04.444Z,102394.75
2023-05-16T22:17:33.727Z,102397.63
2023-05-16T22:20:02.680Z,102378.28
2023-05-16T22:22:30.488Z,102397.00
2023-05-16T22:24:58.377Z,102390.97
2023-05-16T22:27:26.474Z,102387.44
2023-05-16T22:29:54.299Z,102387.44
2023-05-16T22:32:22.327Z,102389.50
2023-05-16T22:34:52.805Z,102391.38
2023-05-16T22:37:20.653Z,102386.19
2023-05-16T22:39:48.738Z,102394.47
2023-05-16T22:42:16.604Z,102397.19
2023-05-16T22:44:44.406Z,102392.00
2023-05-16T22:47:12.207Z,102397.59
2023-05-16T22:49:40.078Z,102401.28
2023-05-16T22:52:09.655Z,102397.97
2023-05-16T22:54:37.541Z,102403.34
2023-05-16T22:57:05.644Z,102382.34
2023-05-16T22:59:34.196Z,102397.72
2023-05-16T23:02:02.001Z,102396.06
2023-05-16T23:04:29.813Z,102393.75
2023-05-16T23:06:57.676Z,102395.44
2023-05-16T23:09:27.014Z,102395.44
2023-05-16T23:11:55.013Z,102396.47
2023-05-16T23:14:22.869Z,102399.16
2023-05-16T23:16:50.705Z,102398.31
2023-05-16T23:19:18.734Z,102395.44
2023-05-16T23:21:46.801Z,102396.47
2023-05-16T23:24:14.770Z,102394.78
2023-05-16T23:26:44.038Z,102402.06
2023-05-16T23:29:12.067Z,102408.50
2023-05-16T23:31:40.204Z,102410.56
2023-05-16T23:34:08.352Z,102404.31
2023-05-16T23:36:36.269Z,102406.38
2023-05-16T23:39:04.136Z,102413.84
2023-05-16T23:41:32.065Z,102401.78
2023-05-16T23:44:01.268Z,102408.84
2023-05-16T23:54:04.824Z,102416.75
2023-05-16T23:56:32.913Z,102414.06
2023-05-16T23:59:02.515Z,102418.63
